createdAt,value
2018-09-11T00:00:09.790Z,21.9
2018-09-11T00:00:41.837Z,21.9
2018-09-11T00:01:13.920Z,21.9
2018-09-11T00:01:45.973Z,21.78
2018-09-11T00:02:17.999Z,21.8
2018-09-11T00:02:50.028Z,21.83
2018-09-11T00:03:22.264Z,21.89
2018-09-11T00:03:54.395Z,21.82
2018-09-11T00:04:26.440Z,21.92
2018-09-11T00:04:58.480Z,21.77
2018-09-11T00:05:30.547Z,21.82
2018-09-11T00:06:02.615Z,21.86
2018-09-11T00:06:35.969Z,21.9
2018-09-11T00:07:08.042Z,21.83
2018-09-11T00:07:40.088Z,21.74
2018-09-11T00:08:12.099Z,21.82
2018-09-11T00:08:44.137Z,21.82
2018-09-11T00:09:16.232Z,21.86
2018-09-11T00:09:48.299Z,21.74
2018-09-11T00:10:20.345Z,21.9
2018-09-11T00:10:52.409Z,21.89
2018-09-11T00:11:24.450Z,21.9
2018-09-11T00:11:56.538Z,21.78
2018-09-11T00:12:28.609Z,21.78
2018-09-11T00:13:00.664Z,21.86
2018-09-11T00:13:32.732Z,21.93
2018-09-11T00:14:04.754Z,21.86
2018-09-11T00:14:36.902Z,21.77
2018-09-11T00:15:08.978Z,21.86
2018-09-11T00:15:40.990Z,21.92
2018-09-11T00:16:13.082Z,21.83
2018-09-11T00:16:45.108Z,21.92
2018-09-11T00:17:17.195Z,21.83
2018-09-11T00:17:49.269Z,21.85
2018-09-11T00:18:21.346Z,21.74
2018-09-11T00:18:53.503Z,21.74
2018-09-11T00:19:25.586Z,21.82
2018-09-11T00:19:57.627Z,21.82
2018-09-11T00:20:30.179Z,21.8
2018-09-11T00:21:02.232Z,21.89
2018-09-11T00:21:34.302Z,21.86
2018-09-11T00:22:06.336Z,21.82
2018-09-11T00:22:38.382Z,21.78
2018-09-11T00:23:10.522Z,21.78
2018-09-11T00:23:42.587Z,21.85
2018-09-11T00:24:14.657Z,21.82
2018-09-11T00:24:46.724Z,21.83
2018-09-11T00:25:18.810Z,21.8
2018-09-11T00:25:50.892Z,21.77
2018-09-11T00:26:22.937Z,21.77
2018-09-11T00:26:55.023Z,21.8
2018-09-11T00:27:27.080Z,21.8
2018-09-11T00:27:59.221Z,21.8
2018-09-11T00:28:31.435Z,21.8
2018-09-11T00:29:03.465Z,21.82
2018-09-11T00:29:35.501Z,21.78
2018-09-11T00:30:07.514Z,21.8
2018-09-11T00:30:39.562Z,21.8
2018-09-11T00:31:11.641Z,21.83
2018-09-11T00:31:43.730Z,21.8
2018-09-11T00:32:15.776Z,21.77
2018-09-11T00:32:47.883Z,21.78
2018-09-11T00:33:19.958Z,21.73
2018-09-11T00:33:52.008Z,21.8
2018-09-11T00:34:24.114Z,21.8
2018-09-11T00:34:56.274Z,21.76
2018-09-11T00:35:28.368Z,21.8
2018-09-11T00:36:00.404Z,21.82
2018-09-11T00:36:32.479Z,21.82
2018-09-11T00:37:04.534Z,21.71
2018-09-11T00:37:36.614Z,21.77
2018-09-11T00:38:08.699Z,21.77
2018-09-11T00:38:40.784Z,21.71
2018-09-11T00:39:12.858Z,21.71
2018-09-11T00:39:44.922Z,21.74
2018-09-11T00:40:17.003Z,21.68
2018-09-11T00:40:49.168Z,21.71
2018-09-11T00:41:21.246Z,21.67
2018-09-11T00:41:53.270Z,21.76
2018-09-11T00:42:25.336Z,21.78
2018-09-11T00:42:57.421Z,21.74
2018-09-11T00:43:29.477Z,21.74
2018-09-11T00:44:01.563Z,21.76
2018-09-11T00:44:33.623Z,21.77
2018-09-11T00:45:05.731Z,21.77
2018-09-11T00:45:37.765Z,21.82
2018-09-11T00:46:09.839Z,21.74
2018-09-11T00:46:41.970Z,21.74
2018-09-11T00:47:14.721Z,21.7
2018-09-11T00:47:46.743Z,21.8
2018-09-11T00:48:18.787Z,21.71
2018-09-11T00:48:50.868Z,21.73
2018-09-11T00:49:22.877Z,21.78
2018-09-11T00:49:54.981Z,21.68
2018-09-11T00:50:27.047Z,21.73
2018-09-11T00:50:59.111Z,21.76
2018-09-11T00:51:31.135Z,21.76
2018-09-11T00:52:03.203Z,21.74
2018-09-11T00:52:35.231Z,21.78
2018-09-11T00:53:07.252Z,21.73
2018-09-11T00:53:39.383Z,21.77
2018-09-11T00:54:11.441Z,21.76
2018-09-11T00:54:43.612Z,21.76
2018-09-11T00:55:15.726Z,21.71
2018-09-11T00:55:47.785Z,21.74
2018-09-11T00:56:19.849Z,21.8
2018-09-11T00:56:51.820Z,21.73
2018-09-11T00:57:23.876Z,21.74
2018-09-11T00:57:56.710Z,21.73
2018-09-11T00:58:28.757Z,21.71
2018-09-11T00:59:00.825Z,21.73
2018-09-11T00:59:32.876Z,21.71
2018-09-11T01:00:04.967Z,21.71
2018-09-11T01:00:37.085Z,21.74
2018-09-11T01:01:09.944Z,21.76
2018-09-11T01:01:41.987Z,21.76
2018-09-11T01:02:14.034Z,21.74
2018-09-11T01:02:46.084Z,21.7
2018-09-11T01:03:18.221Z,21.7
2018-09-11T01:03:50.359Z,21.74
2018-09-11T01:04:22.507Z,21.74
2018-09-11T01:04:54.641Z,21.66
2018-09-11T01:05:26.705Z,21.68
2018-09-11T01:05:58.766Z,21.67
2018-09-11T01:06:30.840Z,21.74
2018-09-11T01:07:02.863Z,21.71
2018-09-11T01:07:34.964Z,21.68
2018-09-11T01:08:07.028Z,21.66
2018-09-11T01:08:39.078Z,21.66
2018-09-11T01:09:11.084Z,21.7
2018-09-11T01:09:43.995Z,21.66
2018-09-11T01:10:16.267Z,21.66
2018-09-11T01:10:48.277Z,21.68
2018-09-11T01:11:20.311Z,21.74
2018-09-11T01:11:52.355Z,21.76
2018-09-11T01:12:24.417Z,21.66
2018-09-11T01:12:56.497Z,21.7
2018-09-11T01:13:28.526Z,21.66
2018-09-11T01:14:00.588Z,21.67
2018-09-11T01:14:32.663Z,21.73
2018-09-11T01:15:04.745Z,21.67
2018-09-11T01:15:36.792Z,21.68
2018-09-11T01:16:08.840Z,21.68
2018-09-11T01:16:40.904Z,21.67
2018-09-11T01:17:12.963Z,21.67
2018-09-11T01:17:45.004Z,21.7
2018-09-11T01:18:17.082Z,21.66
2018-09-11T01:18:49.120Z,21.62
2018-09-11T01:19:21.138Z,21.7
2018-09-11T01:19:53.174Z,21.67
2018-09-11T01:20:25.246Z,21.64
2018-09-11T01:20:57.291Z,21.64
2018-09-11T01:21:29.375Z,21.62
2018-09-11T01:22:01.427Z,21.67
2018-09-11T01:22:33.478Z,21.67
2018-09-11T01:23:05.500Z,21.67
2018-09-11T01:23:38.290Z,21.62
2018-09-11T01:24:10.388Z,21.61
2018-09-11T01:24:42.458Z,21.68
2018-09-11T01:25:14.538Z,21.59
2018-09-11T01:25:46.600Z,21.64
2018-09-11T01:26:18.646Z,21.62
2018-09-11T01:26:51.546Z,21.66
2018-09-11T01:27:23.568Z,21.62
2018-09-11T01:27:55.642Z,21.67
2018-09-11T01:28:27.677Z,21.66
2018-09-11T01:28:59.734Z,21.68
2018-09-11T01:29:31.783Z,21.67
2018-09-11T01:30:03.834Z,21.62
2018-09-11T01:30:35.857Z,21.62
2018-09-11T01:31:07.902Z,21.64
2018-09-11T01:31:39.958Z,21.62
2018-09-11T01:32:12.007Z,21.62
2018-09-11T01:32:44.073Z,21.59
2018-09-11T01:33:16.712Z,21.62
2018-09-11T01:33:48.801Z,21.66
2018-09-11T01:34:20.830Z,21.62
2018-09-11T01:34:52.908Z,21.64
2018-09-11T01:35:24.997Z,21.61
2018-09-11T01:35:57.046Z,21.62
2018-09-11T01:36:29.134Z,21.64
2018-09-11T01:37:01.247Z,21.64
2018-09-11T01:37:33.231Z,21.62
2018-09-11T01:38:05.283Z,21.64
2018-09-11T01:38:37.398Z,21.61
2018-09-11T01:39:09.983Z,21.66
2018-09-11T01:39:42.061Z,21.64
2018-09-11T01:40:14.094Z,21.61
2018-09-11T01:40:46.238Z,21.68
2018-09-11T01:41:18.401Z,21.66
2018-09-11T01:41:50.562Z,21.64
2018-09-11T01:42:22.615Z,21.67
2018-09-11T01:42:54.680Z,21.68
2018-09-11T01:43:26.726Z,21.71
2018-09-11T01:43:58.813Z,21.7
2018-09-11T01:44:31.076Z,21.62
2018-09-11T01:45:03.175Z,21.53
2018-09-11T01:45:36.036Z,21.64
2018-09-11T01:46:08.123Z,21.67
2018-09-11T01:46:40.284Z,21.68
2018-09-11T01:47:12.387Z,21.62
2018-09-11T01:47:44.439Z,21.64
2018-09-11T01:48:16.497Z,21.61
2018-09-11T01:48:48.541Z,21.61
2018-09-11T01:49:20.610Z,21.66
2018-09-11T01:49:52.664Z,21.59
2018-09-11T01:50:24.707Z,21.64
2018-09-11T01:50:56.769Z,21.58
2018-09-11T01:51:28.795Z,21.66
2018-09-11T01:52:00.859Z,21.59
2018-09-11T01:52:32.954Z,21.64
2018-09-11T01:53:05.026Z,21.56
2018-09-11T01:53:37.144Z,21.61
2018-09-11T01:54:09.160Z,21.64
2018-09-11T01:54:41.212Z,21.61
2018-09-11T01:55:13.271Z,21.64
2018-09-11T01:55:45.371Z,21.55
2018-09-11T01:56:17.969Z,21.64
2018-09-11T01:56:49.960Z,21.61
2018-09-11T01:57:22.062Z,21.53
2018-09-11T01:57:54.077Z,21.64
2018-09-11T01:58:26.116Z,21.52
2018-09-11T01:58:58.192Z,21.59
2018-09-11T01:59:30.276Z,21.55
2018-09-11T02:00:02.302Z,21.51
2018-09-11T02:00:34.354Z,21.55
2018-09-11T02:01:06.429Z,21.55
2018-09-11T02:01:38.488Z,21.61
2018-09-11T02:02:10.548Z,21.59
2018-09-11T02:02:42.648Z,21.52
2018-09-11T02:03:14.721Z,21.48
2018-09-11T02:03:46.808Z,21.53
2018-09-11T02:04:18.895Z,21.53
2018-09-11T02:04:50.948Z,21.53
2018-09-11T02:05:22.995Z,21.56
2018-09-11T02:05:55.076Z,21.55
2018-09-11T02:06:27.152Z,21.53
2018-09-11T02:06:59.269Z,21.55
2018-09-11T02:07:31.344Z,21.49
2018-09-11T02:08:03.376Z,21.59
2018-09-11T02:08:35.481Z,21.53
2018-09-11T02:09:07.590Z,21.49
2018-09-11T02:09:39.692Z,21.55
2018-09-11T02:10:11.744Z,21.51
2018-09-11T02:10:43.816Z,21.51
2018-09-11T02:11:15.891Z,21.51
2018-09-11T02:11:47.949Z,21.55
2018-09-11T02:12:19.985Z,21.51
2018-09-11T02:12:52.027Z,21.51
2018-09-11T02:13:24.100Z,21.53
2018-09-11T02:13:57.071Z,21.52
2018-09-11T02:14:29.114Z,21.46
2018-09-11T02:15:01.173Z,21.53
2018-09-11T02:15:33.227Z,21.53
2018-09-11T02:16:05.257Z,21.52
2018-09-11T02:16:37.311Z,21.51
2018-09-11T02:17:09.401Z,21.58
2018-09-11T02:17:41.425Z,21.56
2018-09-11T02:18:13.496Z,21.56
2018-09-11T02:18:45.558Z,21.58
2018-09-11T02:19:17.615Z,21.59
2018-09-11T02:19:49.680Z,21.48
2018-09-11T02:20:21.733Z,21.48
2018-09-11T02:20:53.854Z,21.48
2018-09-11T02:21:25.924Z,21.55
2018-09-11T02:21:57.997Z,21.56
2018-09-11T02:22:30.044Z,21.43
2018-09-11T02:23:02.093Z,21.56
2018-09-11T02:23:34.151Z,21.43
2018-09-11T02:24:06.223Z,21.51
2018-09-11T02:24:38.307Z,21.55
2018-09-11T02:25:10.382Z,21.46
2018-09-11T02:25:42.518Z,21.62
2018-09-11T02:26:14.583Z,21.48
2018-09-11T02:26:46.638Z,21.41
2018-09-11T02:27:18.699Z,21.48
2018-09-11T02:27:50.783Z,21.52
2018-09-11T02:28:22.859Z,21.43
2018-09-11T02:28:54.947Z,21.48
2018-09-11T02:29:27.041Z,21.41
2018-09-11T02:29:59.065Z,21.51
2018-09-11T02:30:31.144Z,21.56
2018-09-11T02:31:03.251Z,21.58
2018-09-11T02:31:35.292Z,21.49
2018-09-11T02:32:07.326Z,21.53
2018-09-11T02:32:39.399Z,21.49
2018-09-11T02:33:11.476Z,21.45
2018-09-11T02:33:43.555Z,21.52
2018-09-11T02:34:15.613Z,21.52
2018-09-11T02:34:47.740Z,21.53
2018-09-11T02:35:19.763Z,21.46
2018-09-11T02:35:52.476Z,21.51
2018-09-11T02:36:24.456Z,21.45
2018-09-11T02:36:56.530Z,21.43
2018-09-11T02:37:28.615Z,21.48
2018-09-11T02:38:00.688Z,21.48
2018-09-11T02:38:32.767Z,21.49
2018-09-11T02:39:04.854Z,21.51
2018-09-11T02:39:36.900Z,21.49
2018-09-11T02:40:08.977Z,21.46
2018-09-11T02:40:41.034Z,21.46
2018-09-11T02:41:13.045Z,21.49
2018-09-11T02:41:45.109Z,21.45
2018-09-11T02:42:17.835Z,21.45
2018-09-11T02:42:49.843Z,21.53
2018-09-11T02:43:21.908Z,21.49
2018-09-11T02:43:53.968Z,21.46
2018-09-11T02:44:26.181Z,21.45
2018-09-11T02:44:58.299Z,21.45
2018-09-11T02:45:30.371Z,21.4
2018-09-11T02:46:02.448Z,21.43
2018-09-11T02:46:34.498Z,21.52
2018-09-11T02:47:06.539Z,21.46
2018-09-11T02:47:38.736Z,21.4
2018-09-11T02:48:10.804Z,21.46
2018-09-11T02:48:42.840Z,21.41
2018-09-11T02:49:14.864Z,21.4
2018-09-11T02:49:46.931Z,21.4
2018-09-11T02:50:19.029Z,21.4
2018-09-11T02:50:51.866Z,21.46
2018-09-11T02:51:23.936Z,21.43
2018-09-11T02:51:55.994Z,21.49
2018-09-11T02:52:28.064Z,21.43
2018-09-11T02:53:00.147Z,21.51
2018-09-11T02:53:32.238Z,21.43
2018-09-11T02:54:04.306Z,21.4
2018-09-11T02:54:36.455Z,21.41
2018-09-11T02:55:08.547Z,21.43
2018-09-11T02:55:40.622Z,21.37
2018-09-11T02:56:12.689Z,21.4
2018-09-11T02:56:44.760Z,21.41
2018-09-11T02:57:16.859Z,21.43
2018-09-11T02:57:49.496Z,21.48
2018-09-11T02:58:21.580Z,21.41
2018-09-11T02:58:53.664Z,21.41
2018-09-11T02:59:25.759Z,21.48
2018-09-11T02:59:57.768Z,21.36
2018-09-11T03:00:29.851Z,21.4
2018-09-11T03:01:01.940Z,21.38
2018-09-11T03:01:33.997Z,21.4
2018-09-11T03:02:06.039Z,21.4
2018-09-11T03:02:38.087Z,21.4
2018-09-11T03:03:10.171Z,21.4
2018-09-11T03:03:42.239Z,21.34
2018-09-11T03:04:14.294Z,21.52
2018-09-11T03:04:46.373Z,21.36
2018-09-11T03:05:18.452Z,21.38
2018-09-11T03:05:50.526Z,21.36
2018-09-11T03:06:23.077Z,21.43
2018-09-11T03:06:55.132Z,21.36
2018-09-11T03:07:27.165Z,21.43
2018-09-11T03:07:59.226Z,21.36
2018-09-11T03:08:31.295Z,21.38
2018-09-11T03:09:03.328Z,21.41
2018-09-11T03:09:35.360Z,21.41
2018-09-11T03:10:07.440Z,21.4
2018-09-11T03:10:39.504Z,21.4
2018-09-11T03:11:11.537Z,21.4
2018-09-11T03:11:43.631Z,21.34
2018-09-11T03:12:15.700Z,21.36
2018-09-11T03:12:47.823Z,21.43
2018-09-11T03:13:19.847Z,21.36
2018-09-11T03:13:51.920Z,21.34
2018-09-11T03:14:23.958Z,21.37
2018-09-11T03:14:56.026Z,21.34
2018-09-11T03:15:28.131Z,21.28
2018-09-11T03:16:00.240Z,21.34
2018-09-11T03:16:32.319Z,21.48
2018-09-11T03:17:04.380Z,21.3
2018-09-11T03:17:37.070Z,21.37
2018-09-11T03:18:09.150Z,21.43
2018-09-11T03:18:41.281Z,21.37
2018-09-11T03:19:13.313Z,21.37
2018-09-11T03:19:45.394Z,21.34
2018-09-11T03:20:17.434Z,21.36
2018-09-11T03:20:49.493Z,21.36
2018-09-11T03:21:21.518Z,21.36
2018-09-11T03:21:53.605Z,21.37
2018-09-11T03:22:25.646Z,21.36
2018-09-11T03:22:57.701Z,21.3
2018-09-11T03:23:29.824Z,21.37
2018-09-11T03:24:02.772Z,21.31
2018-09-11T03:24:34.820Z,21.4
2018-09-11T03:25:06.872Z,21.36
2018-09-11T03:25:38.946Z,21.38
2018-09-11T03:26:10.988Z,21.28
2018-09-11T03:26:43.028Z,21.33
2018-09-11T03:27:15.085Z,21.34
2018-09-11T03:27:47.146Z,21.36
2018-09-11T03:28:19.147Z,21.33
2018-09-11T03:28:51.229Z,21.31
2018-09-11T03:29:23.278Z,21.33
2018-09-11T03:29:55.367Z,21.34
2018-09-11T03:30:27.490Z,21.3
2018-09-11T03:30:59.565Z,21.31
2018-09-11T03:31:31.619Z,21.31
2018-09-11T03:32:04.295Z,21.36
2018-09-11T03:32:36.348Z,21.34
2018-09-11T03:33:08.507Z,21.34
2018-09-11T03:33:40.534Z,21.34
2018-09-11T03:34:12.583Z,21.31
2018-09-11T03:34:44.602Z,21.3
2018-09-11T03:35:17.689Z,21.31
2018-09-11T03:35:49.715Z,21.31
2018-09-11T03:36:21.762Z,21.31
2018-09-11T03:36:53.824Z,21.33
2018-09-11T03:37:25.953Z,21.3
2018-09-11T03:37:58.017Z,21.36
2018-09-11T03:38:30.098Z,21.31
2018-09-11T03:39:02.215Z,21.36
2018-09-11T03:39:34.383Z,21.3
2018-09-11T03:40:06.479Z,21.36
2018-09-11T03:40:38.573Z,21.33
2018-09-11T03:41:10.603Z,21.28
2018-09-11T03:41:42.658Z,21.33
2018-09-11T03:42:14.722Z,21.33
2018-09-11T03:42:46.768Z,21.33
2018-09-11T03:43:18.950Z,21.34
2018-09-11T03:43:51.167Z,21.3
2018-09-11T03:44:23.317Z,21.33
2018-09-11T03:44:55.453Z,21.34
2018-09-11T03:45:27.533Z,21.33
2018-09-11T03:45:59.638Z,21.27
2018-09-11T03:46:31.695Z,21.27
2018-09-11T03:47:03.804Z,21.38
2018-09-11T03:47:35.824Z,21.34
2018-09-11T03:48:07.851Z,21.34
2018-09-11T03:48:39.891Z,21.3
2018-09-11T03:49:11.946Z,21.27
2018-09-11T03:49:44.027Z,21.27
2018-09-11T03:50:16.050Z,21.3
2018-09-11T03:50:48.107Z,21.28
2018-09-11T03:51:20.182Z,21.27
2018-09-11T03:51:52.253Z,21.34
2018-09-11T03:52:24.304Z,21.3
2018-09-11T03:52:56.292Z,21.36
2018-09-11T03:53:28.355Z,21.27
2018-09-11T03:54:00.431Z,21.27
2018-09-11T03:54:32.478Z,21.28
2018-09-11T03:55:04.521Z,21.3
2018-09-11T03:55:36.565Z,21.31
2018-09-11T03:56:08.677Z,21.28
2018-09-11T03:56:40.747Z,21.3
2018-09-11T03:57:12.812Z,21.3
2018-09-11T03:57:44.952Z,21.27
2018-09-11T03:58:17.031Z,21.28
2018-09-11T03:58:49.060Z,21.25
2018-09-11T03:59:21.643Z,21.28
2018-09-11T03:59:53.784Z,21.34
2018-09-11T04:00:25.856Z,21.33
2018-09-11T04:00:57.898Z,21.22
2018-09-11T04:01:29.963Z,21.22
2018-09-11T04:02:02.025Z,21.27
2018-09-11T04:02:34.093Z,21.3
2018-09-11T04:03:06.113Z,21.25
2018-09-11T04:03:38.208Z,21.25
2018-09-11T04:04:10.275Z,21.21
2018-09-11T04:04:42.350Z,21.27
2018-09-11T04:05:14.421Z,21.23
2018-09-11T04:05:46.491Z,21.23
2018-09-11T04:06:19.098Z,21.23
2018-09-11T04:06:51.198Z,21.25
2018-09-11T04:07:23.282Z,21.22
2018-09-11T04:07:55.336Z,21.23
2018-09-11T04:08:27.453Z,21.34
2018-09-11T04:08:59.455Z,21.25
2018-09-11T04:09:31.510Z,21.25
2018-09-11T04:10:03.597Z,21.27
2018-09-11T04:10:35.643Z,21.27
2018-09-11T04:11:07.707Z,21.19
2018-09-11T04:11:39.778Z,21.23
2018-09-11T04:12:11.853Z,21.19
2018-09-11T04:12:43.928Z,21.3
2018-09-11T04:13:15.996Z,21.25
2018-09-11T04:13:48.059Z,21.27
2018-09-11T04:14:20.131Z,21.25
2018-09-11T04:14:52.186Z,21.27
2018-09-11T04:15:24.300Z,21.21
2018-09-11T04:15:56.384Z,21.27
2018-09-11T04:16:28.432Z,21.19
2018-09-11T04:17:00.417Z,21.19
2018-09-11T04:17:32.571Z,21.19
2018-09-11T04:18:04.684Z,21.22
2018-09-11T04:18:36.716Z,21.21
2018-09-11T04:19:08.765Z,21.22
2018-09-11T04:19:40.820Z,21.28
2018-09-11T04:20:12.890Z,21.27
2018-09-11T04:20:44.931Z,21.23
2018-09-11T04:21:16.974Z,21.18
2018-09-11T04:21:49.059Z,21.21
2018-09-11T04:22:21.279Z,21.21
2018-09-11T04:22:53.387Z,21.16
2018-09-11T04:23:25.565Z,21.19
2018-09-11T04:23:57.640Z,21.21
2018-09-11T04:24:29.682Z,21.22
2018-09-11T04:25:01.750Z,21.22
2018-09-11T04:25:33.921Z,21.13
2018-09-11T04:26:05.972Z,21.12
2018-09-11T04:26:38.034Z,21.22
2018-09-11T04:27:10.104Z,21.23
2018-09-11T04:27:42.278Z,21.23
2018-09-11T04:28:14.367Z,21.23
2018-09-11T04:28:46.415Z,21.21
2018-09-11T04:29:18.468Z,21.33
2018-09-11T04:29:50.538Z,21.18
2018-09-11T04:30:22.577Z,21.18
2018-09-11T04:30:54.600Z,21.21
2018-09-11T04:31:26.661Z,21.19
2018-09-11T04:31:58.736Z,21.21
2018-09-11T04:32:30.814Z,21.18
2018-09-11T04:33:02.965Z,21.18
2018-09-11T04:33:35.001Z,21.18
2018-09-11T04:34:07.094Z,21.13
2018-09-11T04:34:39.115Z,21.18
2018-09-11T04:35:11.135Z,21.19
2018-09-11T04:35:43.223Z,21.19
2018-09-11T04:36:15.447Z,21.15
2018-09-11T04:36:47.423Z,21.22
2018-09-11T04:37:19.482Z,21.27
2018-09-11T04:37:51.555Z,21.21
2018-09-11T04:38:23.607Z,21.19
2018-09-11T04:38:55.653Z,21.16
2018-09-11T04:39:27.730Z,21.22
2018-09-11T04:39:59.818Z,21.22
2018-09-11T04:40:31.897Z,21.16
2018-09-11T04:41:04.018Z,21.16
2018-09-11T04:41:36.286Z,21.16
2018-09-11T04:42:08.382Z,21.13
2018-09-11T04:42:40.377Z,21.21
2018-09-11T04:43:12.549Z,21.18
2018-09-11T04:43:44.506Z,21.16
2018-09-11T04:44:16.559Z,21.12
2018-09-11T04:44:48.612Z,21.18
2018-09-11T04:45:20.654Z,21.13
2018-09-11T04:45:52.701Z,21.12
2018-09-11T04:46:24.731Z,21.11
2018-09-11T04:46:56.797Z,21.13
2018-09-11T04:47:28.857Z,21.22
2018-09-11T04:48:00.933Z,21.15
2018-09-11T04:48:32.970Z,21.13
2018-09-11T04:49:05.031Z,21.13
2018-09-11T04:49:37.068Z,21.18
2018-09-11T04:50:09.083Z,21.12
2018-09-11T04:50:41.219Z,21.12
2018-09-11T04:51:13.342Z,21.11
2018-09-11T04:51:45.370Z,21.13
2018-09-11T04:52:17.450Z,21.06
2018-09-11T04:52:49.524Z,21.09
2018-09-11T04:53:21.590Z,21.12
2018-09-11T04:53:53.601Z,21.15
2018-09-11T04:54:25.706Z,21.11
2018-09-11T04:54:57.800Z,21.13
2018-09-11T04:55:29.998Z,21.09
2018-09-11T04:56:02.109Z,21.16
2018-09-11T04:56:34.142Z,21.03
2018-09-11T04:57:06.215Z,21.15
2018-09-11T04:57:38.265Z,21.12
2018-09-11T04:58:10.412Z,21.12
2018-09-11T04:58:42.444Z,21.13
2018-09-11T04:59:14.518Z,21.15
2018-09-11T04:59:46.552Z,21.15
2018-09-11T05:00:18.606Z,21.13
2018-09-11T05:00:50.777Z,21.15
2018-09-11T05:01:22.873Z,21.15
2018-09-11T05:01:54.933Z,21.15
2018-09-11T05:02:26.970Z,21.12
2018-09-11T05:02:58.980Z,21.13
2018-09-11T05:03:31.032Z,21.09
2018-09-11T05:04:03.085Z,21.08
2018-09-11T05:04:35.142Z,21.11
2018-09-11T05:05:07.289Z,21.08
2018-09-11T05:05:39.427Z,21.16
2018-09-11T05:06:11.389Z,21.13
2018-09-11T05:06:43.413Z,21.09
2018-09-11T05:07:15.542Z,21.11
2018-09-11T05:07:47.601Z,21.01
2018-09-11T05:08:19.650Z,21.09
2018-09-11T05:08:51.706Z,21.08
2018-09-11T05:09:23.752Z,21.11
2018-09-11T05:09:55.747Z,21.11
2018-09-11T05:10:27.789Z,21.13
2018-09-11T05:10:59.870Z,21.09
2018-09-11T05:11:31.893Z,21.08
2018-09-11T05:12:03.956Z,21.01
2018-09-11T05:12:36.107Z,21.08
2018-09-11T05:13:08.198Z,21.11
2018-09-11T05:13:40.257Z,21.11
2018-09-11T05:14:12.441Z,21.11
2018-09-11T05:14:44.472Z,21.12
2018-09-11T05:15:16.522Z,21.04
2018-09-11T05:15:48.656Z,21.03
2018-09-11T05:16:20.709Z,21.08
2018-09-11T05:16:52.751Z,20.98
2018-09-11T05:17:24.751Z,21.06
2018-09-11T05:17:56.762Z,21.09
2018-09-11T05:18:28.800Z,21.09
2018-09-11T05:19:00.864Z,21.13
2018-09-11T05:19:32.931Z,21.11
2018-09-11T05:20:05.002Z,21.08
2018-09-11T05:20:37.049Z,21.01
2018-09-11T05:21:09.086Z,21.01
2018-09-11T05:21:41.062Z,21.08
2018-09-11T05:22:13.066Z,21.04
2018-09-11T05:22:45.100Z,21.06
2018-09-11T05:23:17.127Z,21.06
2018-09-11T05:23:49.170Z,21.06
2018-09-11T05:24:21.203Z,21.09
2018-09-11T05:24:53.241Z,21.03
2018-09-11T05:25:25.336Z,21.03
2018-09-11T05:25:57.389Z,21.04
2018-09-11T05:26:29.427Z,21.06
2018-09-11T05:27:01.507Z,21
2018-09-11T05:27:33.625Z,21.08
2018-09-11T05:28:05.642Z,21.06
2018-09-11T05:28:37.736Z,21.04
2018-09-11T05:29:09.954Z,21
2018-09-11T05:29:41.966Z,21.09
2018-09-11T05:30:14.040Z,20.98
2018-09-11T05:30:46.054Z,21.08
2018-09-11T05:31:18.129Z,21.11
2018-09-11T05:31:50.170Z,21.01
2018-09-11T05:32:22.227Z,21.04
2018-09-11T05:32:54.283Z,21
2018-09-11T05:33:26.342Z,21.03
2018-09-11T05:33:58.389Z,21.03
2018-09-11T05:34:30.417Z,21.08
2018-09-11T05:35:02.485Z,21.09
2018-09-11T05:35:34.572Z,21.08
2018-09-11T05:36:06.957Z,21.03
2018-09-11T05:36:39.042Z,21.04
2018-09-11T05:37:11.071Z,21
2018-09-11T05:37:43.169Z,21.11
2018-09-11T05:38:15.226Z,21.11
2018-09-11T05:38:47.227Z,21.04
2018-09-11T05:39:19.276Z,21.08
2018-09-11T05:39:51.285Z,21.03
2018-09-11T05:40:23.341Z,21.06
2018-09-11T05:40:55.357Z,21.11
2018-09-11T05:41:27.495Z,21.19
2018-09-11T05:41:59.520Z,21.08
2018-09-11T05:42:31.590Z,21.08
2018-09-11T05:43:04.346Z,21.11
2018-09-11T05:43:36.436Z,21.01
2018-09-11T05:44:08.509Z,21.13
2018-09-11T05:44:40.571Z,21.09
2018-09-11T05:45:12.630Z,21.12
2018-09-11T05:45:44.658Z,21.12
2018-09-11T05:46:16.819Z,21.12
2018-09-11T05:46:48.853Z,21.18
2018-09-11T05:47:21.427Z,21.15
2018-09-11T05:47:53.468Z,21.11
2018-09-11T05:48:25.531Z,21.13
2018-09-11T05:48:57.607Z,21.18
2018-09-11T05:49:29.649Z,21.13
2018-09-11T05:50:01.655Z,21.16
2018-09-11T05:50:33.754Z,21.09
2018-09-11T05:51:05.845Z,21.18
2018-09-11T05:51:37.892Z,21.09
2018-09-11T05:52:09.946Z,21.09
2018-09-11T05:52:42.017Z,21.09
2018-09-11T05:53:14.097Z,21.19
2018-09-11T05:53:46.173Z,21.22
2018-09-11T05:54:18.247Z,21.18
2018-09-11T05:54:50.304Z,21.22
2018-09-11T05:55:22.352Z,21.23
2018-09-11T05:55:54.384Z,21.18
2018-09-11T05:56:26.401Z,21.22
2018-09-11T05:56:58.431Z,21.16
2018-09-11T05:57:30.507Z,21.22
2018-09-11T05:58:02.546Z,21.19
2018-09-11T05:58:34.612Z,21.3
2018-09-11T05:59:06.686Z,21.28
2018-09-11T05:59:38.776Z,21.19
2018-09-11T06:00:10.813Z,21.22
2018-09-11T06:00:42.826Z,21.25
2018-09-11T06:01:15.021Z,21.28
2018-09-11T06:01:47.087Z,21.22
2018-09-11T06:02:19.140Z,21.27
2018-09-11T06:02:51.181Z,21.23
2018-09-11T06:03:23.218Z,21.23
2018-09-11T06:03:55.272Z,21.31
2018-09-11T06:04:27.286Z,21.21
2018-09-11T06:04:59.398Z,21.3
2018-09-11T06:05:31.598Z,21.31
2018-09-11T06:06:03.667Z,21.31
2018-09-11T06:06:35.776Z,21.34
2018-09-11T06:07:07.783Z,21.3
2018-09-11T06:07:39.794Z,21.33
2018-09-11T06:08:11.874Z,21.36
2018-09-11T06:08:43.944Z,21.34
2018-09-11T06:09:16.056Z,21.36
2018-09-11T06:09:48.213Z,21.43
2018-09-11T06:10:20.360Z,21.38
2018-09-11T06:10:52.385Z,21.38
2018-09-11T06:11:24.480Z,21.43
2018-09-11T06:11:56.534Z,21.51
2018-09-11T06:12:28.557Z,21.46
2018-09-11T06:13:00.700Z,21.49
2018-09-11T06:13:32.716Z,21.48
2018-09-11T06:14:04.787Z,21.46
2018-09-11T06:14:36.784Z,21.48
2018-09-11T06:15:08.841Z,21.51
2018-09-11T06:15:40.854Z,21.49
2018-09-11T06:16:12.954Z,21.52
2018-09-11T06:16:44.959Z,21.43
2018-09-11T06:17:16.980Z,21.41
2018-09-11T06:17:49.060Z,21.46
2018-09-11T06:18:21.102Z,21.58
2018-09-11T06:18:53.148Z,21.59
2018-09-11T06:19:25.174Z,21.48
2018-09-11T06:19:57.228Z,21.53
2018-09-11T06:20:29.219Z,21.59
2018-09-11T06:21:01.307Z,21.51
2018-09-11T06:21:33.398Z,21.52
2018-09-11T06:22:05.480Z,21.52
2018-09-11T06:22:37.533Z,21.62
2018-09-11T06:23:09.573Z,21.66
2018-09-11T06:23:41.613Z,21.64
2018-09-11T06:24:13.638Z,21.58
2018-09-11T06:24:45.641Z,21.66
2018-09-11T06:25:17.729Z,21.66
2018-09-11T06:25:49.924Z,21.64
2018-09-11T06:26:22.891Z,21.68
2018-09-11T06:26:54.972Z,21.73
2018-09-11T06:27:27.055Z,21.71
2018-09-11T06:27:59.137Z,21.77
2018-09-11T06:28:31.161Z,21.76
2018-09-11T06:29:03.259Z,21.74
2018-09-11T06:29:35.421Z,21.82
2018-09-11T06:30:07.554Z,21.77
2018-09-11T06:30:39.655Z,21.76
2018-09-11T06:31:11.721Z,21.85
2018-09-11T06:31:43.805Z,21.76
2018-09-11T06:32:15.923Z,21.86
2018-09-11T06:32:47.970Z,21.76
2018-09-11T06:33:20.028Z,21.8
2018-09-11T06:33:52.064Z,21.86
2018-09-11T06:34:24.304Z,21.94
2018-09-11T06:34:56.437Z,21.93
2018-09-11T06:35:28.615Z,21.89
2018-09-11T06:36:00.826Z,21.86
2018-09-11T06:36:32.866Z,21.94
2018-09-11T06:37:05.059Z,21.97
2018-09-11T06:37:37.074Z,21.97
2018-09-11T06:38:09.099Z,21.97
2018-09-11T06:38:41.147Z,22
2018-09-11T06:39:13.210Z,22.04
2018-09-11T06:39:45.260Z,22.04
2018-09-11T06:40:17.327Z,22.05
2018-09-11T06:40:49.360Z,22.08
2018-09-11T06:41:21.608Z,22.11
2018-09-11T06:41:53.660Z,22.09
2018-09-11T06:42:25.727Z,22.09
2018-09-11T06:42:57.781Z,22.08
2018-09-11T06:43:29.831Z,22.16
2018-09-11T06:44:01.909Z,22.14
2018-09-11T06:44:33.929Z,22.09
2018-09-11T06:45:06.008Z,22.18
2018-09-11T06:45:38.106Z,22.23
2018-09-11T06:46:10.170Z,22.27
2018-09-11T06:46:42.268Z,22.24
2018-09-11T06:47:14.340Z,22.23
2018-09-11T06:47:46.427Z,22.24
2018-09-11T06:48:19.167Z,22.2
2018-09-11T06:48:51.244Z,22.27
2018-09-11T06:49:23.400Z,22.3
2018-09-11T06:49:55.419Z,22.34
2018-09-11T06:50:27.454Z,22.38
2018-09-11T06:50:59.457Z,22.38
2018-09-11T06:51:31.561Z,22.36
2018-09-11T06:52:03.612Z,22.42
2018-09-11T06:52:35.648Z,22.42
2018-09-11T06:53:07.724Z,22.42
2018-09-11T06:53:39.781Z,22.44
2018-09-11T06:54:11.824Z,22.51
2018-09-11T06:54:44.068Z,22.48